createdAt,value
2022-08-25T00:00:23.074Z,90.16
2022-08-25T00:03:08.209Z,90.27
2022-08-25T00:05:37.942Z,90.14
2022-08-25T00:08:09.933Z,90.13
2022-08-25T00:10:41.690Z,89.93
2022-08-25T00:13:11.431Z,90.25
2022-08-25T00:15:41.315Z,90.34
2022-08-25T00:18:11.526Z,90.10
2022-08-25T00:20:49.842Z,90.29
2022-08-25T00:23:20.953Z,90.28
2022-08-25T00:25:50.937Z,90.28
2022-08-25T00:28:20.346Z,90.55
2022-08-25T00:30:50.101Z,90.50
2022-08-25T00:33:20.019Z,90.73
2022-08-25T00:35:50.296Z,90.52
2022-08-25T00:38:21.519Z,90.41
2022-08-25T00:41:05.892Z,90.44
2022-08-25T00:43:38.522Z,90.55
2022-08-25T00:46:08.903Z,90.33
2022-08-25T00:48:40.410Z,90.39
2022-08-25T00:51:14.761Z,90.59
2022-08-25T00:53:45.945Z,90.56
2022-08-25T00:56:16.264Z,90.82
2022-08-25T00:58:48.414Z,90.94
2022-08-25T01:01:18.022Z,90.90
2022-08-25T01:03:47.580Z,90.68
2022-08-25T01:06:16.943Z,90.73
2022-08-25T01:08:48.465Z,90.75
2022-08-25T01:11:17.977Z,90.89
2022-08-25T01:13:55.388Z,91.11
2022-08-25T01:16:26.370Z,91.02
2022-08-25T01:19:00.574Z,90.84
2022-08-25T01:21:34.526Z,91.00
2022-08-25T01:24:04.517Z,90.80
2022-08-25T01:29:22.817Z,91.06
2022-08-25T01:31:55.950Z,91.10
2022-08-25T01:34:26.897Z,91.01
2022-08-25T01:36:59.287Z,90.84
2022-08-25T01:39:31.100Z,90.85
2022-08-25T01:42:20.623Z,90.96
2022-08-25T01:44:50.577Z,91.02
2022-08-25T01:47:20.185Z,91.17
2022-08-25T01:49:49.541Z,90.90
2022-08-25T01:52:25.723Z,90.74
2022-08-25T01:54:55.064Z,90.80
2022-08-25T01:57:24.625Z,90.89
2022-08-25T01:59:54.896Z,91.09
2022-08-25T02:02:24.221Z,90.92
2022-08-25T02:04:56.602Z,91.09
2022-08-25T02:07:27.406Z,90.80
2022-08-25T02:09:57.155Z,90.93
2022-08-25T02:12:31.946Z,91.16
2022-08-25T02:15:02.806Z,91.05
2022-08-25T02:17:32.924Z,90.94
2022-08-25T02:20:02.502Z,91.01
2022-08-25T02:25:02.678Z,90.88
2022-08-25T02:27:32.264Z,91.24
2022-08-25T02:30:01.551Z,91.20
2022-08-25T02:32:31.335Z,91.16
2022-08-25T02:35:01.050Z,91.25
2022-08-25T02:37:30.460Z,90.90
2022-08-25T02:40:01.312Z,90.74
2022-08-25T02:42:31.366Z,91.12
2022-08-25T02:45:00.640Z,91.04
2022-08-25T02:47:31.954Z,91.07
2022-08-25T02:50:01.513Z,90.89
2022-08-25T02:52:31.231Z,91.12
2022-08-25T02:55:04.186Z,91.10
2022-08-25T02:57:33.853Z,91.31
2022-08-25T03:00:03.471Z,91.31
2022-08-25T03:02:32.815Z,91.50
2022-08-25T03:05:02.478Z,91.54
2022-08-25T03:07:31.892Z,91.41
2022-08-25T03:10:10.529Z,91.26
2022-08-25T03:12:41.658Z,91.50
2022-08-25T03:15:12.854Z,91.55
2022-08-25T03:17:43.822Z,91.69
2022-08-25T03:20:15.462Z,91.67
2022-08-25T03:22:44.949Z,91.57
2022-08-25T03:25:33.225Z,91.67
2022-08-25T03:28:03.970Z,91.96
2022-08-25T03:30:33.526Z,91.95
2022-08-25T03:33:02.823Z,91.94
2022-08-25T03:35:32.450Z,92.03
2022-08-25T03:38:02.682Z,92.07
2022-08-25T03:40:33.569Z,91.98
2022-08-25T03:43:03.795Z,92.10
2022-08-25T03:45:32.980Z,92.15
2022-08-25T03:48:02.370Z,92.16
2022-08-25T03:50:31.948Z,91.95
2022-08-25T03:53:01.250Z,91.91
2022-08-25T03:55:32.579Z,91.86
2022-08-25T03:58:02.378Z,92.03
2022-08-25T04:00:31.789Z,92.02
2022-08-25T04:03:01.331Z,92.14
2022-08-25T04:05:30.935Z,91.90
2022-08-25T04:08:02.694Z,92.01
2022-08-25T04:10:33.780Z,92.02
2022-08-25T04:13:03.626Z,91.80
2022-08-25T04:15:33.206Z,92.10
2022-08-25T04:18:02.536Z,91.99
2022-08-25T04:20:31.832Z,91.91
2022-08-25T04:23:01.712Z,91.92
2022-08-25T04:25:31.487Z,92.29
2022-08-25T04:28:02.321Z,91.98
2022-08-25T04:30:31.873Z,92.26
2022-08-25T04:33:03.336Z,92.04
2022-08-25T04:35:32.932Z,91.80
2022-08-25T04:38:02.807Z,92.01
2022-08-25T04:40:33.241Z,92.37
2022-08-25T04:43:04.231Z,92.23
2022-08-25T04:45:33.601Z,92.30
2022-08-25T04:48:02.902Z,92.56
2022-08-25T04:50:32.596Z,92.68
2022-08-25T04:53:02.589Z,92.65
2022-08-25T04:55:31.845Z,92.55
2022-08-25T04:58:01.597Z,92.40
2022-08-25T05:00:32.421Z,92.64
2022-08-25T05:03:01.677Z,92.79
2022-08-25T05:05:31.446Z,92.87
2022-08-25T05:08:03.715Z,92.76
2022-08-25T05:10:33.802Z,92.40
2022-08-25T05:13:03.191Z,92.68
2022-08-25T05:15:52.581Z,92.96
2022-08-25T05:18:26.494Z,92.74
2022-08-25T05:20:56.863Z,93.03
2022-08-25T05:23:27.040Z,92.79
2022-08-25T05:25:56.409Z,93.21
2022-08-25T05:28:25.974Z,92.87
2022-08-25T05:31:00.688Z,92.96
2022-08-25T05:33:32.147Z,92.89
2022-08-25T05:36:02.298Z,92.90
2022-08-25T05:38:31.621Z,92.84
2022-08-25T05:41:03.487Z,92.94
2022-08-25T05:43:33.213Z,92.67
2022-08-25T05:46:04.144Z,92.72
2022-08-25T05:48:33.776Z,92.50
2022-08-25T05:51:05.366Z,92.42
2022-08-25T05:53:35.741Z,92.32
2022-08-25T05:56:06.135Z,92.34
2022-08-25T05:58:36.371Z,91.97
2022-08-25T06:01:20.884Z,91.97
2022-08-25T06:03:50.991Z,92.00
2022-08-25T06:06:20.746Z,92.36
2022-08-25T06:08:50.079Z,91.94
2022-08-25T06:11:20.315Z,91.94
2022-08-25T06:13:50.087Z,92.09
2022-08-25T06:16:20.844Z,91.77
2022-08-25T06:18:50.641Z,91.85
2022-08-25T06:21:19.965Z,91.67
2022-08-25T06:23:50.371Z,91.62
2022-08-25T06:26:22.597Z,91.42
2022-08-25T06:28:54.652Z,91.41
2022-08-25T06:31:25.687Z,90.96
2022-08-25T06:33:55.085Z,90.81
2022-08-25T06:36:24.688Z,90.56
2022-08-25T06:38:54.703Z,90.56
2022-08-25T06:41:25.375Z,90.35
2022-08-25T06:44:07.119Z,90.19
2022-08-25T06:46:37.719Z,90.33
2022-08-25T06:49:08.167Z,90.08
2022-08-25T06:51:37.766Z,89.88
2022-08-25T06:54:10.115Z,89.63
2022-08-25T06:56:40.785Z,89.60
2022-08-25T06:59:11.573Z,89.35
2022-08-25T07:01:42.698Z,89.51
2022-08-25T07:04:13.057Z,89.13
2022-08-25T07:06:43.051Z,88.92
2022-08-25T07:09:13.768Z,88.80
2022-08-25T07:11:46.539Z,88.99
2022-08-25T07:14:17.346Z,88.65
2022-08-25T07:16:50.369Z,88.37
2022-08-25T07:19:21.531Z,88.24
2022-08-25T07:21:54.222Z,88.08
2022-08-25T07:24:24.635Z,87.92
2022-08-25T07:26:54.316Z,88.21
2022-08-25T07:29:31.624Z,87.49
2022-08-25T07:32:05.086Z,87.42
2022-08-25T07:34:52.823Z,87.36
2022-08-25T07:37:50.301Z,87.09
2022-08-25T07:40:26.655Z,86.95
2022-08-25T07:42:58.934Z,86.72
2022-08-25T07:45:31.771Z,86.72
2022-08-25T07:48:05.405Z,86.66
2022-08-25T07:50:38.804Z,86.59
2022-08-25T07:53:08.869Z,86.37
2022-08-25T07:55:38.800Z,86.37
2022-08-25T07:58:10.878Z,86.20
2022-08-25T08:00:42.294Z,86.23
2022-08-25T08:03:35.191Z,86.44
2022-08-25T08:06:03.026Z,86.32
2022-08-25T08:08:33.465Z,86.12
2022-08-25T08:11:04.622Z,86.02
2022-08-25T08:13:39.327Z,86.46
2022-08-25T08:16:11.734Z,86.22
2022-08-25T08:18:44.818Z,86.44
2022-08-25T08:21:19.231Z,86.50
2022-08-25T08:23:50.338Z,86.51
2022-08-25T08:26:20.586Z,86.32
2022-08-25T08:28:51.930Z,86.60
2022-08-25T08:31:24.181Z,86.59
2022-08-25T08:33:58.639Z,86.38
2022-08-25T08:36:28.635Z,86.60
2022-08-25T08:38:59.407Z,86.50
2022-08-25T08:42:11.255Z,86.26
2022-08-25T08:44:58.088Z,86.31
2022-08-25T08:47:52.811Z,86.48
2022-08-25T08:50:33.781Z,86.50
2022-08-25T08:53:11.905Z,86.59
2022-08-25T08:55:44.272Z,86.60
2022-08-25T08:58:19.379Z,86.70
2022-08-25T09:00:52.588Z,87.04
2022-08-25T09:03:32.979Z,86.86
2022-08-25T09:06:07.146Z,87.10
2022-08-25T09:08:39.274Z,87.24
2022-08-25T09:11:24.945Z,87.38
2022-08-25T09:14:11.234Z,87.86
2022-08-25T09:16:57.150Z,87.74
2022-08-25T09:19:48.421Z,87.80
2022-08-25T09:22:35.053Z,88.12
2022-08-25T09:25:18.779Z,88.22
2022-08-25T09:28:06.313Z,88.55
2022-08-25T09:30:48.692Z,88.94
2022-08-25T09:33:23.444Z,88.84
2022-08-25T09:35:57.421Z,88.87
2022-08-25T09:38:30.934Z,89.23
2022-08-25T09:41:02.635Z,89.32
2022-08-25T09:43:35.723Z,89.34
2022-08-25T09:46:12.396Z,89.37
2022-08-25T09:48:48.419Z,89.38
2022-08-25T09:51:42.228Z,89.37
2022-08-25T09:54:25.386Z,89.36
2022-08-25T09:57:05.542Z,89.55
2022-08-25T09:59:39.050Z,89.72
2022-08-25T10:02:26.707Z,89.74
2022-08-25T10:04:57.190Z,89.66
2022-08-25T10:07:33.784Z,89.75
2022-08-25T10:10:07.782Z,90.03
2022-08-25T10:12:43.198Z,89.81
2022-08-25T10:15:29.441Z,90.04
2022-08-25T10:18:25.717Z,89.76
2022-08-25T10:21:10.155Z,90.19
2022-08-25T10:23:44.883Z,89.85
2022-08-25T10:26:25.658Z,89.73
2022-08-25T10:29:07.648Z,89.86
2022-08-25T10:31:49.158Z,89.84
2022-08-25T10:34:31.339Z,90.01
2022-08-25T10:37:12.375Z,89.62
2022-08-25T10:40:02.821Z,89.67
2022-08-25T10:42:40.651Z,89.48
2022-08-25T10:45:38.489Z,89.53
2022-08-25T10:48:31.918Z,89.44
2022-08-25T10:51:09.129Z,89.31
2022-08-25T10:53:51.825Z,89.18
2022-08-25T10:56:25.912Z,88.79
2022-08-25T10:59:22.297Z,88.52
2022-08-25T11:02:29.663Z,88.44
2022-08-25T11:05:04.336Z,88.46
2022-08-25T11:07:38.370Z,88.27
2022-08-25T11:10:14.723Z,88.33
2022-08-25T11:12:46.987Z,88.22
2022-08-25T11:15:21.387Z,88.02
2022-08-25T11:17:58.760Z,87.71
2022-08-25T11:20:34.628Z,87.32
2022-08-25T11:23:13.683Z,87.38
2022-08-25T11:25:45.930Z,87.24
2022-08-25T11:28:23.134Z,87.13
2022-08-25T11:30:57.321Z,86.03
2022-08-25T11:33:31.114Z,85.96
2022-08-25T11:36:03.791Z,85.84
2022-08-25T11:38:47.890Z,86.14
2022-08-25T11:41:28.236Z,85.77
2022-08-25T11:44:31.487Z,85.75
2022-08-25T11:47:21.617Z,85.82
2022-08-25T11:50:02.085Z,85.67
2022-08-25T11:52:51.099Z,85.35
2022-08-25T11:55:24.343Z,85.52
2022-08-25T11:58:14.971Z,85.56
2022-08-25T12:00:46.606Z,85.23
2022-08-25T12:03:52.185Z,84.96
2022-08-25T12:06:28.365Z,85.08
2022-08-25T12:09:20.613Z,84.76
2022-08-25T12:11:58.088Z,84.52
2022-08-25T12:14:45.849Z,84.22
2022-08-25T12:17:29.624Z,83.97
2022-08-25T12:20:01.278Z,83.99
2022-08-25T12:22:57.117Z,83.80
2022-08-25T12:25:43.737Z,83.80
2022-08-25T12:28:35.502Z,83.84
2022-08-25T12:31:17.286Z,83.61
2022-08-25T12:34:02.383Z,83.81
2022-08-25T12:36:34.202Z,83.58
2022-08-25T12:39:24.219Z,83.49
2022-08-25T12:41:59.237Z,83.68
2022-08-25T12:44:40.938Z,83.36
2022-08-25T12:47:28.330Z,83.61
2022-08-25T12:50:33.537Z,83.39
2022-08-25T12:53:16.364Z,83.52
2022-08-25T12:55:55.499Z,83.41
2022-08-25T12:58:43.725Z,83.22
2022-08-25T13:01:36.139Z,83.50
2022-08-25T13:04:25.326Z,83.35
2022-08-25T13:07:27.899Z,83.43
2022-08-25T13:10:25.503Z,83.52
2022-08-25T13:13:05.903Z,83.67
2022-08-25T13:15:44.416Z,83.70
2022-08-25T13:18:23.808Z,83.83
2022-08-25T13:20:57.044Z,83.73
2022-08-25T13:23:30.231Z,83.97
2022-08-25T13:26:00.027Z,83.79
2022-08-25T13:28:34.703Z,84.04
2022-08-25T13:31:08.265Z,83.77
2022-08-25T13:33:38.595Z,83.86
2022-08-25T13:36:34.881Z,83.81
2022-08-25T13:39:15.214Z,83.58
2022-08-25T13:41:50.106Z,83.43
2022-08-25T13:44:29.517Z,83.08
2022-08-25T13:47:10.129Z,83.14
2022-08-25T13:49:41.033Z,82.88
2022-08-25T13:52:19.289Z,82.90
2022-08-25T13:55:01.194Z,83.02
2022-08-25T13:57:34.564Z,82.81
2022-08-25T14:00:09.462Z,82.65
2022-08-25T14:02:44.203Z,82.70
2022-08-25T14:05:17.423Z,82.46
2022-08-25T14:08:03.869Z,82.10
2022-08-25T14:10:46.708Z,82.41
2022-08-25T14:13:18.972Z,82.33
2022-08-25T14:15:50.029Z,82.12
2022-08-25T14:18:27.082Z,82.21
2022-08-25T14:20:58.884Z,81.98
2022-08-25T14:23:30.426Z,81.74
2022-08-25T14:26:00.839Z,81.84
2022-08-25T14:28:31.923Z,82.01
2022-08-25T14:31:06.686Z,81.57
2022-08-25T14:33:39.740Z,81.98
2022-08-25T14:36:10.344Z,81.80
2022-08-25T14:38:41.281Z,82.04
2022-08-25T14:41:14.012Z,82.09
2022-08-25T14:43:45.330Z,82.11
2022-08-25T14:46:21.966Z,81.96
2022-08-25T14:48:56.622Z,82.10
2022-08-25T14:51:28.410Z,82.16
2022-08-25T14:54:02.585Z,82.02
2022-08-25T14:56:32.554Z,82.22
2022-08-25T14:59:02.399Z,82.26
2022-08-25T15:01:36.002Z,82.04
2022-08-25T15:04:10.036Z,82.29
2022-08-25T15:06:43.754Z,82.22
2022-08-25T15:09:16.311Z,82.23
2022-08-25T15:11:48.324Z,82.26
2022-08-25T15:14:29.131Z,82.19
2022-08-25T15:17:06.767Z,82.23
2022-08-25T15:19:36.683Z,82.12
2022-08-25T15:22:06.710Z,82.30
2022-08-25T15:24:37.971Z,82.49
2022-08-25T15:27:09.988Z,82.56
2022-08-25T15:29:40.906Z,82.48
2022-08-25T15:32:12.486Z,82.77
2022-08-25T15:34:41.787Z,82.81
2022-08-25T15:37:14.646Z,82.83
2022-08-25T15:39:45.184Z,82.65
2022-08-25T15:42:15.360Z,82.63
2022-08-25T15:44:53.110Z,82.63
2022-08-25T15:47:25.464Z,83.13
2022-08-25T15:50:04.958Z,82.81
2022-08-25T15:52:45.905Z,82.76
2022-08-25T15:55:18.172Z,83.01
2022-08-25T15:57:49.896Z,83.10
2022-08-25T16:00:19.658Z,83.36
2022-08-25T16:02:52.475Z,83.52
2022-08-25T16:05:25.739Z,83.39
2022-08-25T16:07:55.706Z,82.95
2022-08-25T16:10:25.113Z,83.21
2022-08-25T16:12:54.481Z,83.48
2022-08-25T16:15:28.631Z,83.26
2022-08-25T16:18:01.291Z,83.44
2022-08-25T16:20:31.757Z,83.43
2022-08-25T16:23:03.860Z,83.41
2022-08-25T16:25:33.805Z,83.75
2022-08-25T16:28:05.917Z,83.50
2022-08-25T16:30:35.641Z,83.60
2022-08-25T16:33:06.755Z,83.91
2022-08-25T16:35:36.866Z,83.96
2022-08-25T16:38:10.161Z,83.90
2022-08-25T16:40:43.347Z,84.12
2022-08-25T16:43:13.345Z,84.08
2022-08-25T16:45:42.884Z,83.88
2022-08-25T16:48:13.540Z,84.29
2022-08-25T16:50:42.839Z,83.98
2022-08-25T16:53:32.592Z,84.17
2022-08-25T16:56:07.525Z,84.42
2022-08-25T16:58:38.583Z,84.38
2022-08-25T17:01:11.435Z,84.60
2022-08-25T17:03:43.968Z,84.38
2022-08-25T17:06:14.262Z,84.59
2022-08-25T17:08:44.717Z,84.67
2022-08-25T17:11:15.919Z,84.92
2022-08-25T17:13:47.816Z,84.90
2022-08-25T17:16:21.560Z,84.88
2022-08-25T17:18:52.489Z,84.98
2022-08-25T17:21:26.867Z,85.06
2022-08-25T17:23:57.901Z,85.23
2022-08-25T17:26:29.065Z,85.35
2022-08-25T17:28:59.622Z,85.49
2022-08-25T17:31:30.942Z,85.16
2022-08-25T17:34:02.073Z,85.36
2022-08-25T17:36:31.384Z,85.62
2022-08-25T17:39:01.432Z,85.78
2022-08-25T17:41:31.288Z,85.81
2022-08-25T17:44:00.832Z,85.50
2022-08-25T17:46:30.815Z,85.89
2022-08-25T17:49:01.506Z,85.97
2022-08-25T17:51:31.776Z,85.76
2022-08-25T17:54:01.582Z,86.03
2022-08-25T17:56:33.424Z,85.75
2022-08-25T17:59:02.980Z,86.22
2022-08-25T18:01:35.358Z,86.17
2022-08-25T18:04:17.680Z,86.34
2022-08-25T18:06:49.371Z,86.50
2022-08-25T18:09:19.162Z,86.71
2022-08-25T18:11:48.590Z,86.89
2022-08-25T18:14:21.192Z,86.82
2022-08-25T18:16:54.005Z,86.82
2022-08-25T18:19:24.980Z,86.78
2022-08-25T18:21:54.490Z,86.92
2022-08-25T18:24:23.843Z,86.98
2022-08-25T18:26:53.167Z,87.08
2022-08-25T18:29:22.813Z,87.13
2022-08-25T18:31:53.670Z,86.89
2022-08-25T18:34:27.269Z,86.91
2022-08-25T18:37:20.112Z,87.10
2022-08-25T18:40:06.998Z,87.07
2022-08-25T18:42:36.881Z,86.96
2022-08-25T18:45:08.106Z,87.04
2022-08-25T18:47:41.880Z,87.25
2022-08-25T18:50:13.650Z,87.09
2022-08-25T18:52:44.119Z,87.38
2022-08-25T18:55:13.708Z,87.19
2022-08-25T18:57:43.518Z,87.41
2022-08-25T19:00:17.053Z,87.15
2022-08-25T19:02:47.563Z,87.36
2022-08-25T19:05:20.467Z,87.16
2022-08-25T19:07:51.786Z,87.18
2022-08-25T19:10:24.047Z,87.30
2022-08-25T19:12:55.558Z,87.43
2022-08-25T19:15:27.190Z,87.45
2022-08-25T19:17:59.874Z,87.50
2022-08-25T19:20:31.215Z,87.68
2022-08-25T19:23:01.189Z,88.01
2022-08-25T19:25:33.044Z,88.01
2022-08-25T19:28:08.369Z,88.25
2022-08-25T19:30:43.718Z,88.16
2022-08-25T19:33:37.709Z,88.15
2022-08-25T19:36:11.962Z,88.18
2022-08-25T19:38:44.033Z,88.39
2022-08-25T19:41:15.080Z,88.48
2022-08-25T19:43:56.781Z,88.66
2022-08-25T19:46:35.387Z,88.54
2022-08-25T19:49:09.005Z,88.74
2022-08-25T19:51:44.344Z,88.87
2022-08-25T19:54:16.220Z,88.97
2022-08-25T19:56:54.875Z,89.05
2022-08-25T19:59:42.315Z,88.97
2022-08-25T20:02:17.106Z,89.03
2022-08-25T20:04:49.308Z,89.28
2022-08-25T20:07:22.860Z,89.29
2022-08-25T20:09:54.587Z,89.29
2022-08-25T20:12:25.244Z,89.54
2022-08-25T20:14:56.488Z,89.53
2022-08-25T20:17:28.274Z,89.80
2022-08-25T20:20:00.741Z,89.91
2022-08-25T20:22:33.959Z,90.07
2022-08-25T20:25:13.158Z,90.40
2022-08-25T20:27:45.339Z,90.40
2022-08-25T20:30:18.178Z,90.46
2022-08-25T20:32:47.561Z,90.63
2022-08-25T20:35:18.218Z,90.49
2022-08-25T20:37:49.780Z,90.79
2022-08-25T20:40:25.753Z,90.97
2022-08-25T20:42:55.723Z,90.96
2022-08-25T20:45:25.586Z,91.06
2022-08-25T20:47:54.896Z,90.91
2022-08-25T20:52:57.636Z,91.11
2022-08-25T20:55:27.777Z,91.20
2022-08-25T20:57:58.388Z,91.16
2022-08-25T21:00:27.682Z,90.99
2022-08-25T21:02:56.984Z,91.21
2022-08-25T21:05:26.571Z,91.14
2022-08-25T21:07:57.245Z,91.46
2022-08-25T21:10:26.829Z,91.66
2022-08-25T21:12:56.311Z,91.55
2022-08-25T21:15:26.329Z,91.40
2022-08-25T21:17:56.732Z,91.68
2022-08-25T21:20:27.078Z,91.75
2022-08-25T21:22:57.833Z,91.61
2022-08-25T21:25:27.337Z,91.53
2022-08-25T21:27:56.686Z,91.85
2022-08-25T21:30:27.217Z,91.76
2022-08-25T21:32:58.163Z,91.68
2022-08-25T21:35:27.882Z,92.05
2022-08-25T21:38:00.149Z,92.08
2022-08-25T21:40:29.503Z,92.14
2022-08-25T21:42:58.765Z,92.05
2022-08-25T21:45:28.280Z,92.30
2022-08-25T21:48:05.898Z,92.35
2022-08-25T21:50:35.594Z,92.24
2022-08-25T21:53:06.472Z,92.40
2022-08-25T21:55:41.912Z,92.60
2022-08-25T21:58:11.369Z,92.70
2022-08-25T22:00:40.918Z,92.83
2022-08-25T22:03:10.189Z,92.78
2022-08-25T22:05:39.569Z,92.75
2022-08-25T22:08:11.560Z,93.00
2022-08-25T22:10:44.839Z,92.96
2022-08-25T22:13:14.334Z,92.90
2022-08-25T22:15:43.660Z,93.24
2022-08-25T22:18:12.958Z,93.21
2022-08-25T22:20:42.617Z,93.35
2022-08-25T22:23:20.148Z,93.56
2022-08-25T22:25:50.072Z,93.51
2022-08-25T22:28:20.871Z,93.64
2022-08-25T22:30:51.166Z,93.52
2022-08-25T22:33:20.466Z,93.66
2022-08-25T22:35:53.163Z,93.62
2022-08-25T22:38:31.577Z,93.85
2022-08-25T22:41:03.612Z,93.82
2022-08-25T22:43:33.076Z,94.05
2022-08-25T22:46:03.666Z,94.10
2022-08-25T22:48:33.008Z,94.18
2022-08-25T22:51:09.604Z,94.25
2022-08-25T22:53:42.313Z,94.03
2022-08-25T22:56:13.361Z,93.97
2022-08-25T22:58:52.158Z,94.26
2022-08-25T23:01:22.853Z,94.33
2022-08-25T23:03:52.587Z,94.56
2022-08-25T23:06:25.223Z,94.25
2022-08-25T23:08:57.644Z,94.62
2022-08-25T23:11:27.097Z,94.78
2022-08-25T23:14:02.193Z,94.55
2022-08-25T23:16:31.770Z,94.53
2022-08-25T23:19:01.801Z,94.81
2022-08-25T23:21:49.200Z,94.77
2022-08-25T23:24:29.135Z,94.72
2022-08-25T23:27:00.993Z,94.63
2022-08-25T23:29:31.156Z,94.68
2022-08-25T23:32:00.443Z,94.80
2022-08-25T23:34:30.776Z,94.67
2022-08-25T23:37:04.308Z,94.86
2022-08-25T23:39:34.976Z,94.61
2022-08-25T23:42:09.552Z,94.85
2022-08-25T23:44:38.598Z,94.67
2022-08-25T23:47:08.020Z,94.49
2022-08-25T23:49:41.587Z,94.73
2022-08-25T23:52:10.945Z,94.83
2022-08-25T23:54:41.643Z,94.91
2022-08-25T23:57:11.186Z,94.70
2022-08-25T23:59:40.901Z,94.63
